sensor_id;sensor_type;location;lat;lon;timestamp;noise_LAeq;noise_LA_min;noise_LA_max;noise_LA01;noise_LA95
40103;Laerm;25814;48.550;9.108;2023-03-20T00:02:20;29.63;28.61;44.40;;
40103;Laerm;25814;48.550;9.108;2023-03-20T00:04:47;30.32;28.81;37.69;;
40103;Laerm;25814;48.550;9.108;2023-03-20T00:07:13;29.90;28.65;34.26;;
40103;Laerm;25814;48.550;9.108;2023-03-20T00:09:39;29.61;28.54;34.68;;
40103;Laerm;25814;48.550;9.108;2023-03-20T00:12:13;29.57;28.50;44.56;;
40103;Laerm;25814;48.550;9.108;2023-03-20T00:14:40;29.73;28.69;39.79;;
40103;Laerm;25814;48.550;9.108;2023-03-20T00:17:19;31.58;28.88;34.46;;
40103;Laerm;25814;48.550;9.108;2023-03-20T00:19:45;30.26;28.54;33.66;;
40103;Laerm;25814;48.550;9.108;2023-03-20T00:22:11;32.70;28.64;45.65;;
40103;Laerm;25814;48.550;9.108;2023-03-20T00:24:38;29.55;28.47;44.82;;
40103;Laerm;25814;48.550;9.108;2023-03-20T00:27:04;29.50;28.38;33.40;;
40103;Laerm;25814;48.550;9.108;2023-03-20T00:29:31;30.42;28.61;48.95;;
40103;Laerm;25814;48.550;9.108;2023-03-20T00:31:58;29.45;28.52;32.32;;
40103;Laerm;25814;48.550;9.108;2023-03-20T00:34:27;29.52;28.43;31.62;;
40103;Laerm;25814;48.550;9.108;2023-03-20T00:36:54;29.41;28.61;33.30;;
40103;Laerm;25814;48.550;9.108;2023-03-20T00:39:21;29.58;28.61;43.54;;
40103;Laerm;25814;48.550;9.108;2023-03-20T00:41:53;29.49;28.47;33.46;;
40103;Laerm;25814;48.550;9.108;2023-03-20T00:47:15;29.64;28.67;45.94;;
40103;Laerm;25814;48.550;9.108;2023-03-20T00:49:47;29.53;28.55;32.09;;
40103;Laerm;25814;48.550;9.108;2023-03-20T00:52:17;29.44;28.51;31.49;;
40103;Laerm;25814;48.550;9.108;2023-03-20T00:54:43;29.62;28.56;44.40;;
40103;Laerm;25814;48.550;9.108;2023-03-20T00:57:28;29.61;28.54;31.78;;
40103;Laerm;25814;48.550;9.108;2023-03-20T01:02:49;30.10;28.31;36.62;;
40103;Laerm;25814;48.550;9.108;2023-03-20T01:05:16;29.56;28.59;33.09;;
40103;Laerm;25814;48.550;9.108;2023-03-20T01:07:42;31.91;30.30;33.83;;
40103;Laerm;25814;48.550;9.108;2023-03-20T01:10:10;29.94;28.56;33.48;;
40103;Laerm;25814;48.550;9.108;2023-03-20T01:12:39;30.24;28.51;43.03;;
40103;Laerm;25814;48.550;9.108;2023-03-20T01:15:20;30.27;29.30;32.23;;
40103;Laerm;25814;48.550;9.108;2023-03-20T01:17:48;30.15;29.35;32.72;;
40103;Laerm;25814;48.550;9.108;2023-03-20T01:20:26;29.87;28.42;31.92;;
40103;Laerm;25814;48.550;9.108;2023-03-20T01:22:52;32.74;28.69;44.54;;
40103;Laerm;25814;48.550;9.108;2023-03-20T01:25:20;29.52;28.70;31.57;;
40103;Laerm;25814;48.550;9.108;2023-03-20T01:27:53;29.40;28.61;31.54;;
40103;Laerm;25814;48.550;9.108;2023-03-20T01:30:27;29.55;28.60;43.54;;
40103;Laerm;25814;48.550;9.108;2023-03-20T01:32:55;29.58;28.61;32.33;;
40103;Laerm;25814;48.550;9.108;2023-03-20T01:35:25;30.05;28.68;31.89;;
40103;Laerm;25814;48.550;9.108;2023-03-20T01:37:54;30.19;29.24;31.89;;
40103;Laerm;25814;48.550;9.108;2023-03-20T01:40:31;30.27;29.37;32.03;;
40103;Laerm;25814;48.550;9.108;2023-03-20T01:42:59;30.48;29.42;32.65;;
40103;Laerm;25814;48.550;9.108;2023-03-20T01:45:34;29.97;28.77;33.38;;
40103;Laerm;25814;48.550;9.108;2023-03-20T01:48:14;29.53;28.63;42.95;;
40103;Laerm;25814;48.550;9.108;2023-03-20T01:50:41;29.43;28.37;31.65;;
40103;Laerm;25814;48.550;9.108;2023-03-20T01:53:24;29.58;28.63;31.75;;
40103;Laerm;25814;48.550;9.108;2023-03-20T01:55:55;29.52;28.63;31.40;;
40103;Laerm;25814;48.550;9.108;2023-03-20T01:58:36;33.63;28.72;43.18;;
40103;Laerm;25814;48.550;9.108;2023-03-20T02:01:11;30.80;28.82;35.17;;
40103;Laerm;25814;48.550;9.108;2023-03-20T02:03:43;29.65;28.64;31.59;;
40103;Laerm;25814;48.550;9.108;2023-03-20T02:06:11;29.58;28.53;32.43;;
40103;Laerm;25814;48.550;9.108;2023-03-20T02:08:47;29.74;28.55;44.55;;
40103;Laerm;25814;48.550;9.108;2023-03-20T02:11:16;29.51;28.65;31.55;;
40103;Laerm;25814;48.550;9.108;2023-03-20T02:13:44;29.49;28.63;31.74;;
40103;Laerm;25814;48.550;9.108;2023-03-20T02:16:14;29.61;28.75;32.95;;
40103;Laerm;25814;48.550;9.108;2023-03-20T02:18:43;29.58;28.70;31.78;;
40103;Laerm;25814;48.550;9.108;2023-03-20T02:33:40;29.54;28.61;31.65;;
40103;Laerm;25814;48.550;9.108;2023-03-20T02:36:47;29.59;28.65;32.98;;
40103;Laerm;25814;48.550;9.108;2023-03-20T02:40:20;29.72;28.75;32.80;;
40103;Laerm;25814;48.550;9.108;2023-03-20T02:43:19;29.65;28.67;44.49;;
40103;Laerm;25814;48.550;9.108;2023-03-20T02:46:34;32.18;28.62;43.66;;
40103;Laerm;25814;48.550;9.108;2023-03-20T02:49:26;31.31;29.15;38.32;;
40103;Laerm;25814;48.550;9.108;2023-03-20T02:55:17;29.48;28.61;31.71;;
40103;Laerm;25814;48.550;9.108;2023-03-20T02:58:11;29.78;28.75;39.36;;
40103;Laerm;25814;48.550;9.108;2023-03-20T03:03:43;31.42;28.69;41.63;;
40103;Laerm;25814;48.550;9.108;2023-03-20T03:06:33;36.10;29.38;46.15;;
40103;Laerm;25814;48.550;9.108;2023-03-20T03:09:21;34.87;28.91;58.21;;
40103;Laerm;25814;48.550;9.108;2023-03-20T03:11:58;29.68;28.74;31.51;;
40103;Laerm;25814;48.550;9.108;2023-03-20T03:14:34;30.69;28.86;40.85;;
40103;Laerm;25814;48.550;9.108;2023-03-20T03:17:05;29.95;28.97;35.09;;
40103;Laerm;25814;48.550;9.108;2023-03-20T03:19:36;29.94;28.88;44.58;;
40103;Laerm;25814;48.550;9.108;2023-03-20T03:22:04;29.81;28.80;31.70;;
40103;Laerm;25814;48.550;9.108;2023-03-20T03:24:37;33.28;29.00;42.45;;
40103;Laerm;25814;48.550;9.108;2023-03-20T03:27:20;30.74;28.84;39.30;;
40103;Laerm;25814;48.550;9.108;2023-03-20T03:29:58;30.18;28.97;33.24;;
40103;Laerm;25814;48.550;9.108;2023-03-20T03:32:34;30.09;28.92;32.27;;
40103;Laerm;25814;48.550;9.108;2023-03-20T03:35:04;30.04;28.77;32.41;;
40103;Laerm;25814;48.550;9.108;2023-03-20T03:38:10;30.74;29.18;33.33;;
40103;Laerm;25814;48.550;9.108;2023-03-20T03:43:57;31.24;29.85;34.04;;
40103;Laerm;25814;48.550;9.108;2023-03-20T03:49:27;31.94;29.73;39.04;;
40103;Laerm;25814;48.550;9.108;2023-03-20T03:52:00;32.18;29.74;49.11;;
40103;Laerm;25814;48.550;9.108;2023-03-20T03:55:06;31.43;29.64;36.78;;
40103;Laerm;25814;48.550;9.108;2023-03-20T03:57:44;30.76;29.30;35.80;;
40103;Laerm;25814;48.550;9.108;2023-03-20T04:00:18;31.17;29.66;33.76;;
40103;Laerm;25814;48.550;9.108;2023-03-20T04:02:52;30.96;29.34;35.08;;
40103;Laerm;25814;48.550;9.108;2023-03-20T04:05:20;31.59;29.96;43.36;;
40103;Laerm;25814;48.550;9.108;2023-03-20T04:07:53;31.85;30.24;40.08;;
40103;Laerm;25814;48.550;9.108;2023-03-20T04:10:20;31.94;30.36;35.51;;
40103;Laerm;25814;48.550;9.108;2023-03-20T04:12:46;32.09;30.09;35.70;;
40103;Laerm;25814;48.550;9.108;2023-03-20T04:15:15;32.62;31.08;36.29;;
40103;Laerm;25814;48.550;9.108;2023-03-20T04:17:42;33.09;31.09;46.99;;
40103;Laerm;25814;48.550;9.108;2023-03-20T04:20:10;32.79;30.67;37.54;;
40103;Laerm;25814;48.550;9.108;2023-03-20T04:22:37;33.85;30.69;50.06;;
40103;Laerm;25814;48.550;9.108;2023-03-20T04:25:08;37.03;30.48;53.46;;
40103;Laerm;25814;48.550;9.108;2023-03-20T04:27:35;38.54;30.70;55.15;;
40103;Laerm;25814;48.550;9.108;2023-03-20T04:30:01;38.26;31.28;54.40;;
40103;Laerm;25814;48.550;9.108;2023-03-20T04:32:27;35.38;31.62;41.91;;
40103;Laerm;25814;48.550;9.108;2023-03-20T04:34:53;35.93;31.54;43.70;;
40103;Laerm;25814;48.550;9.108;2023-03-20T04:37:20;36.09;30.62;46.91;;
40103;Laerm;25814;48.550;9.108;2023-03-20T04:39:46;36.76;30.68;46.84;;
40103;Laerm;25814;48.550;9.108;2023-03-20T04:42:12;38.59;31.30;49.89;;
40103;Laerm;25814;48.550;9.108;2023-03-20T04:44:38;43.38;31.50;56.91;;
40103;Laerm;25814;48.550;9.108;2023-03-20T04:47:04;42.22;31.55;52.08;;
40103;Laerm;25814;48.550;9.108;2023-03-20T04:49:31;47.42;31.64;60.77;;
40103;Laerm;25814;48.550;9.108;2023-03-20T04:51:57;42.08;31.46;56.37;;
40103;Laerm;25814;48.550;9.108;2023-03-20T04:54:24;42.44;31.46;59.44;;
40103;Laerm;25814;48.550;9.108;2023-03-20T04:56:50;36.26;31.56;47.73;;
40103;Laerm;25814;48.550;9.108;2023-03-20T04:59:17;44.39;30.93;64.93;;
40103;Laerm;25814;48.550;9.108;2023-03-20T05:01:43;39.73;31.35;50.18;;
40103;Laerm;25814;48.550;9.108;2023-03-20T05:04:09;36.88;31.85;44.85;;
40103;Laerm;25814;48.550;9.108;2023-03-20T05:06:35;45.38;32.31;56.85;;
40103;Laerm;25814;48.550;9.108;2023-03-20T05:09:02;37.50;32.46;54.84;;
40103;Laerm;25814;48.550;9.108;2023-03-20T05:11:29;37.28;30.88;51.89;;
40103;Laerm;25814;48.550;9.108;2023-03-20T05:13:55;33.32;31.60;36.06;;
40103;Laerm;25814;48.550;9.108;2023-03-20T05:16:21;33.13;31.21;41.71;;
40103;Laerm;25814;48.550;9.108;2023-03-20T05:18:48;35.07;31.92;55.20;;
40103;Laerm;25814;48.550;9.108;2023-03-20T05:21:14;35.93;31.96;50.29;;
40103;Laerm;25814;48.550;9.108;2023-03-20T05:23:40;38.90;31.64;57.32;;
40103;Laerm;25814;48.550;9.108;2023-03-20T05:26:07;35.24;31.74;51.94;;
40103;Laerm;25814;48.550;9.108;2023-03-20T05:28:33;42.26;31.55;58.95;;
40103;Laerm;25814;48.550;9.108;2023-03-20T05:30:59;46.14;32.54;56.82;;
40103;Laerm;25814;48.550;9.108;2023-03-20T05:33:26;46.49;32.70;62.10;;
40103;Laerm;25814;48.550;9.108;2023-03-20T05:35:52;40.50;33.68;56.89;;
40103;Laerm;25814;48.550;9.108;2023-03-20T05:38:18;44.85;32.24;60.46;;
40103;Laerm;25814;48.550;9.108;2023-03-20T05:40:48;47.17;32.24;62.56;;
40103;Laerm;25814;48.550;9.108;2023-03-20T05:43:15;34.31;32.07;44.68;;
40103;Laerm;25814;48.550;9.108;2023-03-20T05:45:42;46.91;32.86;65.86;;
40103;Laerm;25814;48.550;9.108;2023-03-20T05:48:08;37.83;33.31;47.65;;
40103;Laerm;25814;48.550;9.108;2023-03-20T05:50:34;36.67;32.94;46.75;;
40103;Laerm;25814;48.550;9.108;2023-03-20T05:53:00;39.02;34.04;55.86;;
40103;Laerm;25814;48.550;9.108;2023-03-20T05:55:27;39.11;32.60;51.91;;
40103;Laerm;25814;48.550;9.108;2023-03-20T05:57:53;46.40;33.18;61.21;;
40103;Laerm;25814;48.550;9.108;2023-03-20T06:00:20;52.91;33.74;71.56;;
40103;Laerm;25814;48.550;9.108;2023-03-20T06:02:46;46.88;35.25;65.83;;
40103;Laerm;25814;48.550;9.108;2023-03-20T06:05:12;39.71;32.51;51.04;;
40103;Laerm;25814;48.550;9.108;2023-03-20T06:07:39;36.78;33.27;46.14;;
40103;Laerm;25814;48.550;9.108;2023-03-20T06:10:05;39.11;32.94;57.73;;
40103;Laerm;25814;48.550;9.108;2023-03-20T06:12:32;39.11;32.90;58.94;;
40103;Laerm;25814;48.550;9.108;2023-03-20T06:14:58;49.33;33.67;68.09;;
40103;Laerm;25814;48.550;9.108;2023-03-20T06:17:25;45.02;34.72;68.19;;
40103;Laerm;25814;48.550;9.108;2023-03-20T06:19:51;40.25;33.17;64.77;;
40103;Laerm;25814;48.550;9.108;2023-03-20T06:22:17;39.69;33.43;53.87;;
40103;Laerm;25814;48.550;9.108;2023-03-20T06:24:44;38.26;32.94;49.69;;
40103;Laerm;25814;48.550;9.108;2023-03-20T06:27:10;37.39;32.95;49.50;;
40103;Laerm;25814;48.550;9.108;2023-03-20T06:29:36;41.30;33.65;61.43;;
40103;Laerm;25814;48.550;9.108;2023-03-20T06:32:06;36.61;31.51;48.27;;
40103;Laerm;25814;48.550;9.108;2023-03-20T06:34:33;38.23;33.04;51.28;;
40103;Laerm;25814;48.550;9.108;2023-03-20T06:36:59;37.98;32.35;46.97;;
40103;Laerm;25814;48.550;9.108;2023-03-20T06:39:25;36.25;32.19;50.72;;
40103;Laerm;25814;48.550;9.108;2023-03-20T06:41:53;36.06;32.75;53.37;;
40103;Laerm;25814;48.550;9.108;2023-03-20T06:44:19;35.13;31.92;45.40;;
40103;Laerm;25814;48.550;9.108;2023-03-20T06:46:46;37.55;32.36;54.37;;
40103;Laerm;25814;48.550;9.108;2023-03-20T06:49:12;36.73;32.08;53.95;;
40103;Laerm;25814;48.550;9.108;2023-03-20T06:51:38;37.17;32.45;48.44;;
40103;Laerm;25814;48.550;9.108;2023-03-20T06:54:05;40.59;32.48;54.75;;
40103;Laerm;25814;48.550;9.108;2023-03-20T06:56:32;49.05;33.49;65.02;;
40103;Laerm;25814;48.550;9.108;2023-03-20T06:58:58;41.54;32.53;51.69;;
40103;Laerm;25814;48.550;9.108;2023-03-20T07:01:24;37.45;32.32;50.92;;
40103;Laerm;25814;48.550;9.108;2023-03-20T07:03:51;37.12;32.17;46.85;;
40103;Laerm;25814;48.550;9.108;2023-03-20T07:06:18;41.56;31.90;66.40;;
40103;Laerm;25814;48.550;9.108;2023-03-20T07:08:44;39.78;33.08;61.87;;
40103;Laerm;25814;48.550;9.108;2023-03-20T07:11:10;40.29;32.88;55.56;;
40103;Laerm;25814;48.550;9.108;2023-03-20T07:13:37;37.82;32.12;51.33;;
40103;Laerm;25814;48.550;9.108;2023-03-20T07:16:04;34.83;31.99;42.94;;
40103;Laerm;25814;48.550;9.108;2023-03-20T07:18:30;43.93;31.96;55.13;;
40103;Laerm;25814;48.550;9.108;2023-03-20T07:21:00;37.95;31.98;51.83;;
40103;Laerm;25814;48.550;9.108;2023-03-20T07:23:28;39.00;33.18;52.88;;
40103;Laerm;25814;48.550;9.108;2023-03-20T07:25:55;36.90;33.28;49.97;;
40103;Laerm;25814;48.550;9.108;2023-03-20T07:28:21;40.35;33.48;49.76;;
40103;Laerm;25814;48.550;9.108;2023-03-20T07:30:47;37.20;33.13;43.25;;
40103;Laerm;25814;48.550;9.108;2023-03-20T07:33:14;38.66;33.21;55.92;;
40103;Laerm;25814;48.550;9.108;2023-03-20T07:35:40;36.09;31.82;49.79;;
40103;Laerm;25814;48.550;9.108;2023-03-20T07:38:06;35.06;32.28;42.89;;
40103;Laerm;25814;48.550;9.108;2023-03-20T07:40:32;34.93;32.11;45.72;;
40103;Laerm;25814;48.550;9.108;2023-03-20T07:43:00;35.21;32.38;40.64;;
40103;Laerm;25814;48.550;9.108;2023-03-20T07:45:26;34.90;32.26;45.20;;
40103;Laerm;25814;48.550;9.108;2023-03-20T07:47:52;34.05;31.15;41.96;;
40103;Laerm;25814;48.550;9.108;2023-03-20T07:50:19;43.78;32.72;63.28;;
40103;Laerm;25814;48.550;9.108;2023-03-20T07:52:49;36.25;32.46;45.96;;
40103;Laerm;25814;48.550;9.108;2023-03-20T07:55:18;37.34;32.51;47.04;;
40103;Laerm;25814;48.550;9.108;2023-03-20T07:57:44;39.66;33.86;56.28;;
40103;Laerm;25814;48.550;9.108;2023-03-20T08:00:13;45.01;33.14;65.36;;
40103;Laerm;25814;48.550;9.108;2023-03-20T08:02:39;39.96;32.41;57.12;;
40103;Laerm;25814;48.550;9.108;2023-03-20T08:05:06;40.10;32.13;57.38;;
40103;Laerm;25814;48.550;9.108;2023-03-20T08:07:32;38.07;32.25;48.75;;
40103;Laerm;25814;48.550;9.108;2023-03-20T08:09:58;38.38;33.71;49.80;;
40103;Laerm;25814;48.550;9.108;2023-03-20T08:12:26;35.53;31.94;49.86;;
40103;Laerm;25814;48.550;9.108;2023-03-20T08:14:52;34.91;32.25;42.71;;
40103;Laerm;25814;48.550;9.108;2023-03-20T08:17:18;38.83;32.94;59.73;;
40103;Laerm;25814;48.550;9.108;2023-03-20T08:19:45;39.18;33.58;53.55;;
40103;Laerm;25814;48.550;9.108;2023-03-20T08:22:12;39.54;33.44;56.01;;
40103;Laerm;25814;48.550;9.108;2023-03-20T08:24:39;39.98;33.15;59.75;;
40103;Laerm;25814;48.550;9.108;2023-03-20T08:27:05;36.72;32.69;47.91;;
40103;Laerm;25814;48.550;9.108;2023-03-20T08:29:32;41.58;32.20;60.98;;
40103;Laerm;25814;48.550;9.108;2023-03-20T08:31:58;35.70;31.44;52.24;;
40103;Laerm;25814;48.550;9.108;2023-03-20T08:34:24;38.38;32.28;49.41;;
40103;Laerm;25814;48.550;9.108;2023-03-20T08:36:51;37.53;32.85;53.17;;
40103;Laerm;25814;48.550;9.108;2023-03-20T08:39:17;34.62;32.11;49.57;;
40103;Laerm;25814;48.550;9.108;2023-03-20T08:41:43;36.03;31.91;48.84;;
40103;Laerm;25814;48.550;9.108;2023-03-20T08:44:11;35.52;32.07;53.51;;
40103;Laerm;25814;48.550;9.108;2023-03-20T08:46:37;37.96;32.19;56.62;;
40103;Laerm;25814;48.550;9.108;2023-03-20T08:49:04;40.48;32.93;57.74;;
40103;Laerm;25814;48.550;9.108;2023-03-20T08:51:31;36.61;32.09;51.35;;
40103;Laerm;25814;48.550;9.108;2023-03-20T08:53:57;35.20;31.60;40.74;;
40103;Laerm;25814;48.550;9.108;2023-03-20T08:56:23;37.01;32.04;51.85;;
40103;Laerm;25814;48.550;9.108;2023-03-20T08:58:50;35.55;31.50;45.22;;
40103;Laerm;25814;48.550;9.108;2023-03-20T09:01:18;35.94;31.75;44.54;;
40103;Laerm;25814;48.550;9.108;2023-03-20T09:03:44;36.22;31.45;45.82;;
40103;Laerm;25814;48.550;9.108;2023-03-20T09:06:10;35.09;30.90;47.01;;
40103;Laerm;25814;48.550;9.108;2023-03-20T09:08:37;35.23;30.66;42.15;;
40103;Laerm;25814;48.550;9.108;2023-03-20T09:11:04;37.44;32.90;47.27;;
40103;Laerm;25814;48.550;9.108;2023-03-20T09:13:31;34.77;31.12;41.26;;
40103;Laerm;25814;48.550;9.108;2023-03-20T09:15:57;36.25;30.96;48.63;;
40103;Laerm;25814;48.550;9.108;2023-03-20T09:18:24;34.44;31.02;47.24;;
40103;Laerm;25814;48.550;9.108;2023-03-20T09:20:51;35.50;30.86;45.99;;
40103;Laerm;25814;48.550;9.108;2023-03-20T09:23:17;37.91;33.02;46.13;;
40103;Laerm;25814;48.550;9.108;2023-03-20T09:25:44;35.19;32.21;42.48;;
40103;Laerm;25814;48.550;9.108;2023-03-20T09:28:10;33.65;30.84;46.73;;
40103;Laerm;25814;48.550;9.108;2023-03-20T09:30:36;34.13;30.87;51.97;;
40103;Laerm;25814;48.550;9.108;2023-03-20T09:33:02;36.33;31.69;44.29;;
40103;Laerm;25814;48.550;9.108;2023-03-20T09:35:29;39.91;32.88;55.67;;
40103;Laerm;25814;48.550;9.108;2023-03-20T09:37:55;38.77;31.16;56.61;;
40103;Laerm;25814;48.550;9.108;2023-03-20T09:41:00;41.98;31.17;54.36;;
40103;Laerm;25814;48.550;9.108;2023-03-20T09:55:05;38.08;31.63;54.84;;
40103;Laerm;25814;48.550;9.108;2023-03-20T09:57:50;35.11;31.51;48.04;;
40103;Laerm;25814;48.550;9.108;2023-03-20T10:00:23;35.11;30.73;50.66;;
40103;Laerm;25814;48.550;9.108;2023-03-20T10:03:14;35.57;30.87;44.99;;
40103;Laerm;25814;48.550;9.108;2023-03-20T10:05:56;36.84;32.22;46.32;;
40103;Laerm;25814;48.550;9.108;2023-03-20T10:08:35;35.80;31.86;51.99;;
40103;Laerm;25814;48.550;9.108;2023-03-20T10:17:39;36.68;31.53;54.57;;
40103;Laerm;25814;48.550;9.108;2023-03-20T10:20:10;34.15;31.18;42.22;;
40103;Laerm;25814;48.550;9.108;2023-03-20T10:22:45;35.74;31.65;49.25;;
40103;Laerm;25814;48.550;9.108;2023-03-20T10:25:28;44.10;32.15;55.84;;
40103;Laerm;25814;48.550;9.108;2023-03-20T10:28:03;40.88;31.92;57.04;;
40103;Laerm;25814;48.550;9.108;2023-03-20T10:30:46;36.22;31.21;49.62;;
40103;Laerm;25814;48.550;9.108;2023-03-20T10:40:29;35.24;32.21;48.40;;
40103;Laerm;25814;48.550;9.108;2023-03-20T10:43:21;34.78;31.53;45.65;;
40103;Laerm;25814;48.550;9.108;2023-03-20T10:48:47;34.27;31.07;47.84;;
40103;Laerm;25814;48.550;9.108;2023-03-20T10:51:23;34.62;31.47;44.29;;
40103;Laerm;25814;48.550;9.108;2023-03-20T10:53:59;40.61;31.79;55.66;;
40103;Laerm;25814;48.550;9.108;2023-03-20T10:56:35;48.68;30.91;58.61;;
40103;Laerm;25814;48.550;9.108;2023-03-20T10:59:54;45.56;31.74;58.39;;
40103;Laerm;25814;48.550;9.108;2023-03-20T11:01:55;36.18;31.49;48.28;;
40103;Laerm;25814;48.550;9.108;2023-03-20T11:04:21;46.04;31.41;64.86;;
40103;Laerm;25814;48.550;9.108;2023-03-20T11:09:37;34.03;30.28;46.11;;
40103;Laerm;25814;48.550;9.108;2023-03-20T11:12:04;46.63;31.57;60.44;;
40103;Laerm;25814;48.550;9.108;2023-03-20T11:14:38;36.59;30.53;52.16;;
40103;Laerm;25814;48.550;9.108;2023-03-20T11:17:05;35.88;30.13;48.94;;
40103;Laerm;25814;48.550;9.108;2023-03-20T11:19:39;35.65;30.57;51.61;;
40103;Laerm;25814;48.550;9.108;2023-03-20T11:22:24;42.76;31.80;57.25;;
40103;Laerm;25814;48.550;9.108;2023-03-20T11:24:59;36.98;30.74;56.60;;
40103;Laerm;25814;48.550;9.108;2023-03-20T11:27:32;40.98;31.60;54.44;;
40103;Laerm;25814;48.550;9.108;2023-03-20T11:30:04;33.76;31.41;47.20;;
40103;Laerm;25814;48.550;9.108;2023-03-20T11:32:46;35.47;31.57;48.40;;
40103;Laerm;25814;48.550;9.108;2023-03-20T11:35:39;33.76;29.99;48.20;;
40103;Laerm;25814;48.550;9.108;2023-03-20T11:38:19;32.98;30.06;40.74;;
40103;Laerm;25814;48.550;9.108;2023-03-20T11:40:48;37.81;31.03;59.92;;
40103;Laerm;25814;48.550;9.108;2023-03-20T11:43:26;34.91;30.70;46.16;;
40103;Laerm;25814;48.550;9.108;2023-03-20T11:45:57;44.50;30.54;67.63;;
40103;Laerm;25814;48.550;9.108;2023-03-20T11:48:37;34.24;31.30;41.08;;
40103;Laerm;25814;48.550;9.108;2023-03-20T11:51:15;35.22;32.38;48.43;;
40103;Laerm;25814;48.550;9.108;2023-03-20T11:56:30;35.89;32.72;51.08;;
40103;Laerm;25814;48.550;9.108;2023-03-20T12:01:44;37.13;30.99;53.15;;
40103;Laerm;25814;48.550;9.108;2023-03-20T12:04:26;36.47;31.21;51.63;;
40103;Laerm;25814;48.550;9.108;2023-03-20T12:07:05;37.92;31.75;59.73;;
40103;Laerm;25814;48.550;9.108;2023-03-20T12:09:47;36.36;30.97;51.41;;
40103;Laerm;25814;48.550;9.108;2023-03-20T12:15:27;37.03;32.17;51.28;;
40103;Laerm;25814;48.550;9.108;2023-03-20T12:26:31;42.57;30.75;52.78;;
40103;Laerm;25814;48.550;9.108;2023-03-20T12:29:31;49.12;31.66;74.35;;
40103;Laerm;25814;48.550;9.108;2023-03-20T12:32:12;37.56;32.98;46.67;;
40103;Laerm;25814;48.550;9.108;2023-03-20T12:34:47;43.25;33.32;56.31;;
40103;Laerm;25814;48.550;9.108;2023-03-20T12:37:15;37.70;33.30;46.85;;
40103;Laerm;25814;48.550;9.108;2023-03-20T12:39:56;36.57;32.00;54.64;;
40103;Laerm;25814;48.550;9.108;2023-03-20T12:45:26;37.92;32.14;54.35;;
40103;Laerm;25814;48.550;9.108;2023-03-20T12:48:10;37.87;31.99;53.54;;
40103;Laerm;25814;48.550;9.108;2023-03-20T12:51:02;38.24;33.94;52.96;;
40103;Laerm;25814;48.550;9.108;2023-03-20T12:54:01;41.29;34.63;60.78;;
40103;Laerm;25814;48.550;9.108;2023-03-20T12:57:13;42.05;31.36;62.53;;
40103;Laerm;25814;48.550;9.108;2023-03-20T13:03:23;37.31;31.32;55.76;;
40103;Laerm;25814;48.550;9.108;2023-03-20T13:06:15;35.34;31.41;46.43;;
40103;Laerm;25814;48.550;9.108;2023-03-20T13:11:59;36.64;33.00;46.83;;
40103;Laerm;25814;48.550;9.108;2023-03-20T13:15:12;37.01;32.62;42.72;;
40103;Laerm;25814;48.550;9.108;2023-03-20T13:20:56;37.32;35.05;46.06;;
40103;Laerm;25814;48.550;9.108;2023-03-20T13:23:38;38.88;31.89;55.72;;
40103;Laerm;25814;48.550;9.108;2023-03-20T13:26:37;36.45;32.01;46.32;;
40103;Laerm;25814;48.550;9.108;2023-03-20T13:32:13;35.89;31.67;47.80;;
40103;Laerm;25814;48.550;9.108;2023-03-20T13:35:07;39.31;33.07;53.24;;
40103;Laerm;25814;48.550;9.108;2023-03-20T13:37:43;40.17;32.86;57.76;;
40103;Laerm;25814;48.550;9.108;2023-03-20T13:40:40;35.09;32.06;42.99;;
40103;Laerm;25814;48.550;9.108;2023-03-20T13:43:33;36.32;32.61;50.21;;
40103;Laerm;25814;48.550;9.108;2023-03-20T13:46:15;36.30;32.47;48.15;;
40103;Laerm;25814;48.550;9.108;2023-03-20T13:48:45;35.71;32.52;48.43;;
40103;Laerm;25814;48.550;9.108;2023-03-20T13:51:57;35.89;32.40;46.08;;
40103;Laerm;25814;48.550;9.108;2023-03-20T13:54:55;35.77;31.97;49.78;;
40103;Laerm;25814;48.550;9.108;2023-03-20T13:57:57;35.14;31.57;50.48;;
40103;Laerm;25814;48.550;9.108;2023-03-20T14:03:31;37.06;31.09;56.74;;
40103;Laerm;25814;48.550;9.108;2023-03-20T14:06:00;37.79;31.01;63.84;;
40103;Laerm;25814;48.550;9.108;2023-03-20T14:11:07;34.76;31.53;53.30;;
40103;Laerm;25814;48.550;9.108;2023-03-20T14:13:41;34.90;31.24;41.10;;
40103;Laerm;25814;48.550;9.108;2023-03-20T14:16:14;37.69;32.55;51.50;;
40103;Laerm;25814;48.550;9.108;2023-03-20T14:18:46;42.05;32.83;61.80;;
40103;Laerm;25814;48.550;9.108;2023-03-20T14:21:19;37.20;31.28;53.14;;
40103;Laerm;25814;48.550;9.108;2023-03-20T14:24:01;35.48;31.62;48.89;;
40103;Laerm;25814;48.550;9.108;2023-03-20T14:26:35;34.96;31.34;42.18;;
40103;Laerm;25814;48.550;9.108;2023-03-20T14:31:37;37.97;31.14;58.17;;
40103;Laerm;25814;48.550;9.108;2023-03-20T14:34:21;37.58;31.69;47.75;;
40103;Laerm;25814;48.550;9.108;2023-03-20T14:40:23;38.43;32.92;56.01;;
40103;Laerm;25814;48.550;9.108;2023-03-20T14:43:00;37.44;31.93;53.46;;
40103;Laerm;25814;48.550;9.108;2023-03-20T14:45:41;49.25;31.87;72.12;;
40103;Laerm;25814;48.550;9.108;2023-03-20T14:51:08;35.48;32.38;42.40;;
40103;Laerm;25814;48.550;9.108;2023-03-20T14:53:40;36.81;32.55;47.74;;
40103;Laerm;25814;48.550;9.108;2023-03-20T14:56:11;38.09;33.58;51.35;;
40103;Laerm;25814;48.550;9.108;2023-03-20T14:58:50;36.59;32.08;46.64;;
40103;Laerm;25814;48.550;9.108;2023-03-20T15:03:55;38.39;32.31;58.12;;
40103;Laerm;25814;48.550;9.108;2023-03-20T15:06:26;36.78;32.08;48.68;;
40103;Laerm;25814;48.550;9.108;2023-03-20T15:09:04;38.48;32.12;58.32;;
40103;Laerm;25814;48.550;9.108;2023-03-20T15:11:33;39.16;33.90;55.24;;
40103;Laerm;25814;48.550;9.108;2023-03-20T15:14:05;47.67;33.31;66.37;;
40103;Laerm;25814;48.550;9.108;2023-03-20T15:16:34;37.85;32.07;54.46;;
40103;Laerm;25814;48.550;9.108;2023-03-20T15:19:13;36.37;32.10;47.59;;
40103;Laerm;25814;48.550;9.108;2023-03-20T15:21:44;36.81;31.53;58.48;;
40103;Laerm;25814;48.550;9.108;2023-03-20T15:24:26;38.10;32.67;52.75;;
40103;Laerm;25814;48.550;9.108;2023-03-20T15:26:59;38.64;33.03;58.25;;
40103;Laerm;25814;48.550;9.108;2023-03-20T15:29:28;37.97;32.54;47.98;;
40103;Laerm;25814;48.550;9.108;2023-03-20T15:32:00;41.82;33.12;60.09;;
40103;Laerm;25814;48.550;9.108;2023-03-20T15:34:31;38.58;33.64;54.55;;
40103;Laerm;25814;48.550;9.108;2023-03-20T15:37:01;38.40;34.20;47.15;;
40103;Laerm;25814;48.550;9.108;2023-03-20T15:39:42;39.78;33.06;58.05;;
40103;Laerm;25814;48.550;9.108;2023-03-20T15:42:13;39.03;33.41;58.61;;
40103;Laerm;25814;48.550;9.108;2023-03-20T15:44:44;36.79;32.97;45.52;;
40103;Laerm;25814;48.550;9.108;2023-03-20T15:47:16;51.39;34.39;63.28;;
40103;Laerm;25814;48.550;9.108;2023-03-20T15:50:03;37.16;33.29;56.54;;
40103;Laerm;25814;48.550;9.108;2023-03-20T15:52:37;43.03;32.87;58.02;;
40103;Laerm;25814;48.550;9.108;2023-03-20T15:55:15;46.66;32.13;63.01;;
40103;Laerm;25814;48.550;9.108;2023-03-20T15:57:44;36.27;32.20;43.52;;
40103;Laerm;25814;48.550;9.108;2023-03-20T16:02:55;41.39;34.01;53.51;;
40103;Laerm;25814;48.550;9.108;2023-03-20T16:05:28;45.08;33.65;62.55;;
40103;Laerm;25814;48.550;9.108;2023-03-20T16:07:55;36.75;33.52;44.07;;
40103;Laerm;25814;48.550;9.108;2023-03-20T16:10:31;37.43;33.46;55.47;;